Time;durP1;ratioP1;P1;durP2;ratioP2;P2;SDS_P1;SDS_P2;PMS_P1;PMS_P2;Temp;Humidity;BMP_temperature;BMP_pressure;BME280_temperature;BME280_humidity;BME280_pressure;Samples;Min_cycle;Max_cycle;Signal;HPM_P1;HPM_P2
2024/01/09 12:15:31;;;;;;;68.30;29.60;;;;;;;-144.99;64.78;79830.25;105828;1283;600568;-75
2024/01/09 12:18:01;;;;;;;65.80;28.40;;;;;;;-144.99;64.39;79841.00;107242;1265;60463;-76
2024/01/09 12:20:31;;;;;;;70.30;30.30;;;;;;;-144.99;64.61;79854.52;107447;1263;60293;-75
2024/01/09 12:22:59;;;;;;;66.00;28.60;;;;;;;-144.99;64.76;79866.08;107473;1264;74020;-76
2024/01/09 12:25:27;;;;;;;60.40;26.60;;;;;;;-144.99;64.72;79865.27;107443;1264;73630;-75
2024/01/09 12:27:55;;;;;;;61.70;26.80;;;;;;;-144.99;64.41;79876.42;107373;1267;171215;-76
2024/01/09 12:30:23;;;;;;;55.60;24.20;;;;;;;-144.99;64.82;79886.79;107660;1259;63669;-77
2024/01/09 12:32:53;;;;;;;60.60;23.60;;;;;;;-144.99;65.30;79887.98;107737;1261;62215;-77
2024/01/09 12:35:21;;;;;;;61.50;27.20;;;;;;;-144.99;65.31;79885.59;107746;1260;73989;-75
2024/01/09 12:37:49;;;;;;;50.40;23.00;;;;;;;-144.99;65.08;79877.23;107750;1264;74352;-76
2024/01/09 12:40:18;;;;;;;66.60;30.60;;;;;;;-144.99;64.79;79865.28;107580;1260;74703;-76
2024/01/09 12:43:06;;;;;;;59.60;27.50;;;;;;;-144.99;64.54;79859.71;107723;1263;62568;-77
2024/01/09 12:45:34;;;;;;;64.70;27.00;;;;;;;-144.99;64.33;79854.53;107671;1261;62180;-77
2024/01/09 12:48:07;;;;;;;88.80;38.70;;;;;;;-144.99;63.92;79852.54;107733;1261;74960;-76
2024/01/09 12:50:35;;;;;;;63.50;27.00;;;;;;;-144.99;63.93;79846.98;107730;1260;75297;-76
2024/01/09 12:53:03;;;;;;;66.20;31.70;;;;;;;-144.99;63.82;79837.80;107689;1260;73915;-76
2024/01/09 12:55:31;;;;;;;61.30;28.20;;;;;;;-144.99;63.92;79828.65;107700;1260;61066;-77
2024/01/09 12:57:58;;;;;;;76.20;31.90;;;;;;;-144.99;63.01;79821.48;107625;1260;60380;-77
2024/01/09 13:00:26;;;;;;;59.30;24.00;;;;;;;-144.99;63.02;79819.49;107625;1260;72767;-77
2024/01/09 13:02:54;;;;;;;53.10;25.30;;;;;;;-144.99;62.59;79816.31;107499;1260;74690;-80
2024/01/09 13:05:22;;;;;;;49.20;22.90;;;;;;;-144.99;61.71;79821.48;107610;1260;73425;-76
2024/01/09 13:07:50;;;;;;;48.90;20.90;;;;;;;-144.99;61.16;79827.46;107667;1259;61770;-75
2024/01/09 13:10:18;;;;;;;49.00;24.40;;;;;;;-144.99;61.21;79831.84;107603;1260;60895;-76
2024/01/09 13:12:46;;;;;;;47.30;21.30;;;;;;;-144.99;61.18;79832.23;107574;1259;74348;-76
2024/01/09 13:15:14;;;;;;;50.50;20.60;;;;;;;-144.99;60.96;79835.42;107671;1260;75540;-76
2024/01/09 13:17:42;;;;;;;50.60;21.30;;;;;;;-144.99;60.56;79831.05;108381;1253;71413;-74
2024/01/09 13:20:10;;;;;;;76.60;34.40;;;;;;;-144.99;60.31;79829.05;108453;1251;62851;-75
2024/01/09 13:22:38;;;;;;;87.70;36.20;;;;;;;-144.99;60.32;79821.89;108384;1251;61819;-76
2024/01/09 13:25:09;;;;;;;87.70;36.70;;;;;;;-144.99;60.09;79811.93;108384;1251;73806;-75
2024/01/09 13:27:37;;;;;;;85.50;38.50;;;;;;;-144.99;59.92;79799.58;108702;1251;74360;-76
2024/01/09 13:30:07;;;;;;;99.20;40.30;;;;;;;-144.99;59.60;79789.64;108294;1251;73526;-76
2024/01/09 13:32:37;;;;;;;76.40;34.00;;;;;;;-144.99;58.79;79791.23;108293;1253;61371;-75
2024/01/09 13:35:06;;;;;;;76.20;32.50;;;;;;;-144.99;58.60;79795.61;108339;1251;60839;-75
2024/01/09 13:37:34;;;;;;;60.80;27.10;;;;;;;-144.99;58.29;79803.17;108320;1256;72883;-74
2024/01/09 13:40:04;;;;;;;50.40;23.20;;;;;;;-144.99;58.35;79811.93;108400;1251;74472;-74
2024/01/09 13:42:32;;;;;;;56.40;23.40;;;;;;;-144.99;58.62;79824.27;108401;1256;73306;-74
2024/01/09 13:45:00;;;;;;;41.50;18.50;;;;;;;-144.99;58.96;79831.05;108339;1251;62986;-76
2024/01/09 13:47:27;;;;;;;44.90;20.70;;;;;;;-144.99;59.00;79832.63;108317;1251;61211;-75
2024/01/09 13:49:55;;;;;;;48.50;22.70;;;;;;;-144.99;59.07;79832.23;108429;1251;73847;-74
2024/01/09 13:52:27;;;;;;;78.20;33.20;;;;;;;-144.99;59.15;79833.02;108483;1251;73279;-76
2024/01/09 13:54:55;;;;;;;74.30;31.70;;;;;;;-144.99;59.08;79831.84;108341;1251;73414;-76
2024/01/09 13:57:23;;;;;;;85.20;33.20;;;;;;;-144.99;59.04;79829.45;108431;1252;62058;-75
2024/01/09 13:59:51;;;;;;;76.20;34.70;;;;;;;-144.99;58.60;79827.06;108387;1251;60245;-75
2024/01/09 14:02:19;;;;;;;63.50;28.00;;;;;;;-144.99;58.26;79824.27;108363;1256;73064;-75
2024/01/09 14:04:46;;;;;;;60.50;27.60;;;;;;;-144.99;58.04;79825.86;108386;1251;73605;-76
2024/01/09 14:07:15;;;;;;;59.20;27.30;;;;;;;-144.99;57.96;79823.48;108311;1254;73704;-76
2024/01/09 14:09:42;;;;;;;67.90;32.40;;;;;;;-144.99;58.04;79822.68;108288;1251;61055;-78
2024/01/09 14:12:10;;;;;;;65.40;30.20;;;;;;;-144.99;58.10;79822.29;108457;1251;61763;-75
2024/01/09 14:14:38;;;;;;;64.10;32.60;;;;;;;-144.99;58.08;79830.25;108329;1251;72869;-75
2024/01/09 14:17:05;;;;;;;62.80;32.50;;;;;;;-144.99;58.10;79835.82;108369;1251;75269;-77
2024/01/09 14:19:34;;;;;;;61.10;28.60;;;;;;;-144.99;58.09;79849.35;108624;1253;74587;-76
2024/01/09 14:22:02;;;;;;;66.40;30.80;;;;;;;-144.99;58.28;79860.50;108384;1251;61813;-75
2024/01/09 14:24:30;;;;;;;76.50;33.30;;;;;;;-144.99;58.47;79876.84;108862;1250;60924;-75
2024/01/09 14:27:01;;;;;;;80.90;33.50;;;;;;;-144.99;59.08;79885.59;108312;1251;73730;-77
2024/01/09 14:29:29;;;;;;;77.80;31.40;;;;;;;-144.99;59.63;79899.13;108478;1251;74125;-75
2024/01/09 14:32:00;;;;;;;68.80;28.40;;;;;;;-144.99;59.82;79907.09;108207;1252;73458;-75
2024/01/09 14:34:28;;;;;;;73.60;33.20;;;;;;;-144.99;60.18;79915.85;108375;1251;61164;-75
2024/01/09 14:36:55;;;;;;;54.40;24.50;;;;;;;-144.99;60.33;79920.23;108385;1253;60993;-74
2024/01/09 14:39:23;;;;;;;58.80;26.10;;;;;;;-144.99;60.72;79926.99;108314;1251;73846;-75
2024/01/09 14:41:51;;;;;;;68.60;29.10;;;;;;;-144.99;61.12;79936.95;108412;1251;75501;-75
2024/01/09 14:44:18;;;;;;;63.70;27.00;;;;;;;-144.99;61.62;79948.90;108398;1254;73671;-75
2024/01/09 14:46:48;;;;;;;61.10;25.00;;;;;;;-144.99;61.41;79954.48;108388;1251;62601;-74
2024/01/09 14:49:16;;;;;;;50.20;23.20;;;;;;;-144.99;61.90;79962.43;108463;1253;60754;-75
2024/01/09 14:51:47;;;;;;;118.00;44.10;;;;;;;-144.99;61.96;79966.41;108511;1250;73906;-75
2024/01/09 14:54:16;;;;;;;108.90;40.50;;;;;;;-144.99;62.14;79968.01;108295;1251;75281;-75
2024/01/09 14:56:44;;;;;;;170.30;55.80;;;;;;;-144.99;61.96;79972.78;108599;1256;71969;-75
2024/01/09 14:59:11;;;;;;;153.40;51.20;;;;;;;-144.99;62.00;79981.55;108315;1251;61925;-77
2024/01/09 15:01:54;;;;;;;92.80;35.80;;;;;;;-144.99;62.10;79995.88;108260;1253;60286;-75
2024/01/09 15:04:22;;;;;;;88.40;36.20;;;;;;;-144.99;62.13;80005.83;108308;1251;73706;-75
2024/01/09 15:06:49;;;;;;;90.60;39.00;;;;;;;-144.99;62.15;80007.42;108315;1251;74353;-75
2024/01/09 15:09:22;;;;;;;69.80;29.70;;;;;;;-144.99;62.30;80010.21;108443;1251;74530;-75
2024/01/09 15:11:50;;;;;;;92.70;40.50;;;;;;;-144.99;62.24;80015.79;108473;1253;61791;-74
2024/01/09 15:14:35;;;;;;;151.50;54.20;;;;;;;-144.99;62.38;80022.55;108993;1251;60778;-76
2024/01/09 15:17:03;;;;;;;182.60;65.90;;;;;;;-144.99;62.64;80027.33;108775;1251;74693;-79
2024/01/09 15:19:31;;;;;;;218.70;80.20;;;;;;;-144.99;63.00;80034.50;108437;1251;74720;-75
2024/01/09 15:21:59;;;;;;;113.50;48.20;;;;;;;-144.99;63.12;80037.69;108402;1251;73544;-75
2024/01/09 15:24:30;;;;;;;94.60;40.40;;;;;;;-144.99;63.49;80034.89;108402;1251;62949;-75
2024/01/09 15:26:58;;;;;;;129.70;52.00;;;;;;;-144.99;63.56;80036.09;108442;1251;60855;-74
2024/01/09 15:29:26;;;;;;;114.20;49.00;;;;;;;-144.99;63.53;80033.70;108344;1251;74967;-73
2024/01/09 15:31:53;;;;;;;101.60;43.10;;;;;;;-144.99;63.83;80038.48;108429;1251;74351;-73
2024/01/09 15:34:23;;;;;;;85.60;36.20;;;;;;;-144.99;64.01;80046.45;108146;1251;74704;-74
2024/01/09 15:36:51;;;;;;;92.30;41.00;;;;;;;-144.99;63.78;80051.22;108381;1252;62099;-75
2024/01/09 15:39:19;;;;;;;102.50;45.50;;;;;;;-144.99;64.01;80050.42;108342;1251;62003;-75
2024/01/09 15:41:48;;;;;;;132.50;50.80;;;;;;;-144.99;64.22;80060.77;108399;1251;73276;-74
2024/01/09 15:44:17;;;;;;;130.40;47.50;;;;;;;-144.99;64.19;80074.32;108355;1251;75279;-74
2024/01/09 15:46:45;;;;;;;118.00;47.90;;;;;;;-144.99;64.86;80082.27;108366;1252;72881;-74
2024/01/09 15:49:14;;;;;;;121.90;51.70;;;;;;;-144.99;65.14;80087.05;108390;1251;61802;-75
2024/01/09 15:51:41;;;;;;;138.70;58.90;;;;;;;-144.99;65.34;80090.24;108406;1251;61020;-74
2024/01/09 15:54:11;;;;;;;135.70;57.80;;;;;;;-144.99;65.61;80091.84;108450;1251;75472;-74
2024/01/09 15:56:42;;;;;;;116.10;48.10;;;;;;;-144.99;65.77;80094.62;108298;1251;74515;-75
2024/01/09 15:59:10;;;;;;;114.20;49.60;;;;;;;-144.99;66.06;80098.20;108450;1253;74715;-73
2024/01/09 16:01:39;;;;;;;111.20;48.90;;;;;;;-144.99;66.21;80101.39;108379;1251;60849;-75
2024/01/09 16:04:07;;;;;;;113.20;48.60;;;;;;;-144.99;66.62;80106.56;108466;1251;61985;-74
2024/01/09 16:06:35;;;;;;;127.70;51.90;;;;;;;-144.99;66.93;80107.77;108487;1256;72288;-74
2024/01/09 16:09:03;;;;;;;135.30;58.40;;;;;;;-144.99;67.20;80112.14;108478;1251;75408;-74
2024/01/09 16:11:31;;;;;;;155.30;64.60;;;;;;;-144.99;67.57;80111.73;108463;1251;73754;-74
2024/01/09 16:13:58;;;;;;;149.90;62.40;;;;;;;-144.99;68.07;80114.53;108450;1252;62703;-74
2024/01/09 16:16:26;;;;;;;108.90;47.40;;;;;;;-144.99;68.55;80119.30;108479;1251;60747;-74
2024/01/09 16:18:54;;;;;;;98.60;44.70;;;;;;;-144.99;68.63;80116.52;108435;1251;74983;-74
2024/01/09 16:21:22;;;;;;;95.10;42.40;;;;;;;-144.99;68.71;80112.14;108465;1251;73353;-74
2024/01/09 16:23:50;;;;;;;95.30;43.70;;;;;;;-144.99;68.44;80112.14;108477;1251;74679;-75
2024/01/09 16:26:17;;;;;;;124.80;48.30;;;;;;;-144.99;68.51;80112.94;108429;1251;62687;-75
2024/01/09 16:28:45;;;;;;;185.00;62.60;;;;;;;-144.99;68.62;80111.74;108487;1251;61962;-75
2024/01/09 16:31:14;;;;;;;165.00;57.40;;;;;;;-144.99;68.50;80114.92;108370;1251;74774;-75
2024/01/09 16:33:43;;;;;;;151.50;52.50;;;;;;;-144.99;69.01;80114.13;108460;1251;74488;-75
2024/01/09 16:36:12;;;;;;;159.20;59.00;;;;;;;-144.99;68.70;80106.17;108403;1251;75092;-75
2024/01/09 16:38:41;;;;;;;157.50;61.70;;;;;;;-144.99;68.60;80108.95;108946;1253;61961;-75
2024/01/09 16:41:08;;;;;;;136.40;57.20;;;;;;;-144.99;68.67;80114.92;108443;1251;60306;-75
2024/01/09 16:43:36;;;;;;;102.00;43.50;;;;;;;-144.99;68.96;80114.93;108440;1251;74876;-75
2024/01/09 16:46:21;;;;;;;125.90;46.50;;;;;;;-144.99;69.37;80108.95;108477;1251;74438;-75
2024/01/09 16:48:49;;;;;;;91.60;34.70;;;;;;;-144.99;69.23;80098.20;108462;1251;74488;-75
2024/01/09 16:51:17;;;;;;;97.10;36.70;;;;;;;-144.99;69.05;80097.80;108414;1251;61786;-76
2024/01/09 16:53:49;;;;;;;90.10;38.60;;;;;;;-144.99;68.85;80100.20;108461;1251;60764;-75
2024/01/09 16:56:20;;;;;;;78.70;31.10;;;;;;;-144.99;68.84;80107.36;108443;1251;74656;-75
2024/01/09 16:58:52;;;;;;;81.20;33.80;;;;;;;-144.99;68.53;80113.34;108433;1251;75448;-75
2024/01/09 17:01:25;;;;;;;75.80;34.80;;;;;;;-144.99;68.73;80120.10;108356;1251;72803;-75
2024/01/09 17:03:54;;;;;;;89.00;36.80;;;;;;;-144.99;69.30;80123.29;108525;1251;61662;-75
2024/01/09 17:06:22;;;;;;;94.40;43.30;;;;;;;-144.99;69.12;80127.27;108455;1251;61853;-75
2024/01/09 17:08:51;;;;;;;102.20;41.00;;;;;;;-144.99;69.36;80130.06;108507;1251;74601;-75
2024/01/09 17:11:19;;;;;;;127.30;44.40;;;;;;;-144.99;69.28;80136.02;108416;1250;74585;-75
2024/01/09 17:13:47;;;;;;;103.90;41.70;;;;;;;-144.99;69.35;80143.20;108466;1251;72444;-75
2024/01/09 17:16:15;;;;;;;105.40;43.30;;;;;;;-144.99;69.65;80149.17;108412;1251;61636;-75
2024/01/09 17:18:43;;;;;;;110.00;42.30;;;;;;;-144.99;69.56;80158.33;108418;1251;61104;-75
2024/01/09 17:21:13;;;;;;;105.80;45.30;;;;;;;-144.99;69.89;80169.48;108425;1251;74712;-76
2024/01/09 17:23:41;;;;;;;130.50;49.80;;;;;;;-144.99;70.10;80177.05;108419;1251;73095;-74
2024/01/09 17:26:09;;;;;;;160.70;57.00;;;;;;;-144.99;70.43;80181.42;108415;1253;73542;-75
2024/01/09 17:28:37;;;;;;;152.40;54.80;;;;;;;-144.99;70.55;80186.20;108396;1251;61890;-74
2024/01/09 17:31:04;;;;;;;190.80;68.80;;;;;;;-144.99;70.60;80191.77;108422;1251;60354;-75
2024/01/09 17:33:36;;;;;;;109.00;42.20;;;;;;;-144.99;71.12;80194.56;108438;1251;76111;-75
2024/01/09 17:36:04;;;;;;;129.10;51.40;;;;;;;-144.99;71.32;80194.96;108324;1251;73064;-74
2024/01/09 17:38:32;;;;;;;121.60;49.00;;;;;;;-144.99;71.54;80198.14;108498;1251;74800;-75
2024/01/09 17:41:00;;;;;;;97.50;40.90;;;;;;;-144.99;71.78;80203.72;108388;1251;63982;-76
2024/01/09 17:43:28;;;;;;;85.90;31.80;;;;;;;-144.99;71.81;80207.30;108422;1251;61777;-75
2024/01/09 17:45:57;;;;;;;90.80;32.10;;;;;;;-144.99;71.97;80212.48;108464;1251;72934;-75
2024/01/09 17:48:25;;;;;;;111.50;38.50;;;;;;;-144.99;72.14;80221.64;108489;1251;75374;-75
2024/01/09 17:50:53;;;;;;;140.60;45.20;;;;;;;-144.99;72.50;80223.23;108448;1251;72902;-75
2024/01/09 17:53:22;;;;;;;115.70;39.10;;;;;;;-144.99;72.63;80221.23;108467;1251;61709;-75
2024/01/09 17:55:50;;;;;;;87.40;34.60;;;;;;;-144.99;72.30;80230.80;108496;1253;60967;-76
2024/01/09 17:58:18;;;;;;;114.90;45.50;;;;;;;-144.99;72.58;80233.58;108451;1251;72954;-76
2024/01/09 18:00:45;;;;;;;113.10;44.60;;;;;;;-144.99;72.79;80232.00;108329;1251;74390;-74
2024/01/09 18:03:13;;;;;;;111.70;41.00;;;;;;;-144.99;73.29;80227.61;108447;1251;73634;-74
2024/01/09 18:05:45;;;;;;;100.60;37.40;;;;;;;-144.99;73.27;80229.20;108423;1251;62849;-74
2024/01/09 18:08:13;;;;;;;107.80;39.00;;;;;;;-144.99;73.35;80222.44;108475;1251;60903;-75
2024/01/09 18:10:41;;;;;;;89.10;33.30;;;;;;;-144.99;73.50;80220.45;108503;1251;75786;-75
2024/01/09 18:13:09;;;;;;;89.70;34.00;;;;;;;-144.99;73.07;80219.65;108503;1251;75208;-75
2024/01/09 18:15:37;;;;;;;103.30;39.30;;;;;;;-144.99;73.31;80217.27;108462;1251;71633;-74
2024/01/09 18:18:06;;;;;;;120.40;41.70;;;;;;;-144.99;73.27;80211.29;108433;1253;62787;-75
2024/01/09 18:20:35;;;;;;;111.40;38.30;;;;;;;-144.99;73.03;80209.70;108369;1251;60752;-74
2024/01/09 18:23:04;;;;;;;100.80;37.20;;;;;;;-144.99;73.42;80206.11;108487;1251;75768;-75
2024/01/09 18:25:32;;;;;;;103.20;38.10;;;;;;;-144.99;73.65;80201.33;108287;1256;75142;-75
2024/01/09 18:28:03;;;;;;;125.30;43.40;;;;;;;-144.99;73.42;80200.53;108316;1251;73437;-75
2024/01/09 18:30:30;;;;;;;112.80;40.20;;;;;;;-144.99;73.45;80196.55;108362;1251;60441;-76
2024/01/09 18:32:59;;;;;;;98.50;36.40;;;;;;;-144.99;73.30;80189.39;108455;1250;60931;-75
2024/01/09 18:35:27;;;;;;;91.00;34.80;;;;;;;-144.99;73.45;80187.39;108467;1250;74694;-75
2024/01/09 18:37:55;;;;;;;76.60;29.10;;;;;;;-144.99;73.08;80188.99;108428;1250;75361;-75
2024/01/09 18:40:24;;;;;;;78.60;30.50;;;;;;;-144.99;72.83;80192.17;108359;1251;73445;-75
2024/01/09 18:42:52;;;;;;;72.90;29.00;;;;;;;-144.99;72.88;80201.33;108475;1251;60492;-76
2024/01/09 18:45:19;;;;;;;83.00;29.50;;;;;;;-144.99;72.73;80207.30;108423;1251;62194;-76
2024/01/09 18:47:47;;;;;;;76.10;29.20;;;;;;;-144.99;73.01;80214.08;108469;1250;76800;-75
2024/01/09 18:50:16;;;;;;;82.30;29.70;;;;;;;-144.99;72.87;80216.86;108427;1251;75413;-76
2024/01/09 18:52:44;;;;;;;87.80;35.50;;;;;;;-144.99;72.93;80216.46;108396;1251;73073;-75
2024/01/09 18:55:12;;;;;;;88.70;36.50;;;;;;;-144.99;73.06;80219.25;108272;1256;61624;-74
2024/01/09 18:57:40;;;;;;;83.70;33.30;;;;;;;-144.99;73.17;80223.64;108231;1251;61208;-74
2024/01/09 19:00:08;;;;;;;86.10;35.50;;;;;;;-144.99;73.39;80226.02;108363;1250;74711;-74
2024/01/09 19:02:36;;;;;;;77.10;31.50;;;;;;;-144.99;73.81;80225.23;108461;1251;75204;-74
2024/01/09 19:05:06;;;;;;;92.10;35.60;;;;;;;-144.99;73.92;80228.01;108426;1251;73376;-74
2024/01/09 19:07:35;;;;;;;82.10;31.10;;;;;;;-144.99;74.27;80232.39;108400;1251;61821;-74
2024/01/09 19:10:03;;;;;;;89.40;33.40;;;;;;;-144.99;74.53;80237.56;108418;1251;60167;-75
2024/01/09 19:12:31;;;;;;;84.20;31.90;;;;;;;-144.99;74.91;80235.17;108459;1255;75708;-74
2024/01/09 19:14:59;;;;;;;81.30;32.70;;;;;;;-144.99;74.61;80228.81;108379;1255;74739;-74
2024/01/09 19:17:26;;;;;;;74.20;30.30;;;;;;;-144.99;74.70;80229.20;108364;1250;74533;-74
2024/01/09 19:19:54;;;;;;;80.40;31.60;;;;;;;-144.99;74.77;80230.80;108382;1250;61693;-74
2024/01/09 19:22:22;;;;;;;81.30;29.50;;;;;;;-144.99;74.78;80231.60;108401;1253;62043;-75
2024/01/09 19:24:50;;;;;;;95.20;32.30;;;;;;;-144.99;75.27;80236.38;108441;1250;75946;-74
2024/01/09 19:27:18;;;;;;;93.90;34.50;;;;;;;-144.99;75.21;80245.53;108367;1251;75348;-75
2024/01/09 19:29:48;;;;;;;95.60;35.80;;;;;;;-144.99;75.60;80251.11;108443;1251;73607;-74
2024/01/09 19:32:16;;;;;;;99.40;35.70;;;;;;;-144.99;75.72;80251.11;108398;1251;61798;-74
2024/01/09 19:34:44;;;;;;;97.50;35.90;;;;;;;-144.99;76.06;80249.52;108458;1256;61001;-74
2024/01/09 19:37:14;;;;;;;98.00;34.90;;;;;;;-144.99;76.40;80251.50;108399;1256;75802;-74
2024/01/09 19:39:44;;;;;;;96.80;34.00;;;;;;;-144.99;76.47;80254.29;108390;1251;74396;-74
2024/01/09 19:42:13;;;;;;;85.70;31.00;;;;;;;-144.99;76.86;80261.86;108276;1251;74440;-74
2024/01/09 19:44:41;;;;;;;105.60;37.00;;;;;;;-144.99;77.20;80266.63;108356;1250;62657;-76
2024/01/09 19:47:09;;;;;;;99.20;36.30;;;;;;;-144.99;77.46;80265.84;108425;1251;61441;-74
2024/01/09 19:49:37;;;;;;;111.50;38.70;;;;;;;-144.99;77.52;80265.84;108425;1251;74776;-74
2024/01/09 19:52:05;;;;;;;98.60;35.50;;;;;;;-144.99;77.60;80273.00;108426;1251;74412;-73
2024/01/09 19:54:32;;;;;;;105.00;36.60;;;;;;;-144.99;77.75;80267.42;108355;1251;74749;-74
2024/01/09 19:57:00;;;;;;;119.00;38.80;;;;;;;-144.99;77.77;80262.26;108442;1256;62646;-74
2024/01/09 19:59:28;;;;;;;104.10;39.10;;;;;;;-144.99;77.93;80259.07;108440;1251;60892;-74
